SAWG/RGL METAR and TAF weather

Enter ICAO airport designator
Station Type Date Time Source
SAWG METAR 2019/08/24 09:00 UTC NOAA

SAWG 240900Z 29006KT CAVOK 06/00 Q0996


Station Type Date Time Source
SAWG Decoded METAR 2019/08/24 09:00 UTC NOAA

Station name not available
Aug 24, 2019 - 05:00 AM EDT / 2019.08.24 0900 UTC
Wind: from the WNW (290 degrees) at 7 MPH (6 KT):0
Visibility: greater than 7 mile(s):0
Temperature: 42 F (6 C)
Dew Point: 32 F (0 C)
Relative Humidity: 65%
Pressure (altimeter): 29.41 in. Hg (0996 hPa)
ob: SAWG 240900Z 29006KT CAVOK 06/00 Q0996
cycle: 9

Station Type Date Time Source
SAWG TAF 2019/08/24 06:51 UTC NOAA

TAF SAWG 240500Z 2406/2506 02015KT CAVOK TX12/2418Z TN00/2506Z
BECMG 2412/2414 29015KT SCT020 SCT080
BECMG 2418/2420 VRB03KT CAVOK
BECMG 2501/2503 27010KT

Example: see airport list